METAR Data
IDs: Format: Raw Decoded Include TAF

Data at: 2247 UTC 02 Oct 2022

KNUW 022153Z 28004KT 10SM FEW050 17/12 A3002 RMK AO2 SLP163 T01720117 $